.
WxDataArchive / Data Records for 2013-04-08
2013-04-07 April 2013 2013-04-09

Data Records for Monday, 08 April 2013

Time	Temp	Chill	HIndex	Humid	Dewpt	 Wind 	HiWind	WindDir	Rain 	Barom 
-----	----	-----	------	-----	-----	------	------	-------	-----	----- 
00:00	47.3	47.3	47.3	60	34.1	0	2	45	0.00	29.987 
00:05	47.0	47.0	47.0	61	34.3	0	2	45	0.00	29.987 
00:10	46.7	46.7	46.7	61	34.0	0	1	45	0.00	29.987 
00:15	46.5	46.5	46.5	62	34.2	0	2	45	0.00	29.985 
00:20	46.4	46.4	46.4	62	34.1	1	4	68	0.00	29.985 
00:25	46.2	46.2	46.2	62	33.9	0	2	68	0.00	29.985 
00:30	46.1	46.1	46.1	62	33.8	0	2	68	0.00	29.987 
00:35	45.8	45.8	45.8	63	33.9	0	2	68	0.00	29.987 
00:40	45.5	45.5	45.5	63	33.6	0	3	68	0.00	29.987 
00:45	45.4	45.4	45.4	64	33.9	0	2	68	0.00	29.989 
00:50	45.2	45.2	45.2	64	33.8	1	3	68	0.00	29.989 
00:55	45.2	45.2	45.2	64	33.8	1	3	68	0.00	29.989 
01:00	45.1	45.1	45.1	64	33.7	1	3	68	0.00	29.988 
01:05	44.9	44.9	44.9	64	33.5	1	3	68	0.00	29.988 
01:10	44.9	44.9	44.9	63	33.1	1	2	68	0.00	29.988 
01:15	44.6	44.6	44.6	64	33.2	1	3	68	0.00	29.985 
01:20	44.5	44.5	44.5	64	33.1	1	3	68	0.00	29.985 
01:25	44.5	44.5	44.5	64	33.1	1	3	68	0.00	29.985 
01:30	44.3	44.3	44.3	64	32.9	1	3	68	0.00	29.982 
01:35	44.2	44.2	44.2	64	32.8	1	3	68	0.00	29.982 
01:40	44.1	44.1	44.1	65	33.1	0	2	68	0.00	29.982 
01:45	43.9	43.9	43.9	65	32.9	0	2	68	0.00	29.981 
01:50	43.8	43.8	43.8	65	32.8	0	2	68	0.00	29.981 
01:55	43.6	43.6	43.6	65	32.6	1	3	68	0.00	29.981 
02:00	43.6	43.6	43.6	65	32.6	1	3	68	0.00	29.973 
02:05	43.9	43.9	43.9	65	32.9	2	4	90	0.00	29.973 
02:10	44.1	44.1	44.1	64	32.7	2	4	90	0.00	29.973 
02:15	44.1	44.1	44.1	64	32.7	2	4	90	0.00	29.970 
02:20	44.2	44.2	44.2	64	32.8	2	4	90	0.00	29.970 
02:25	44.2	44.2	44.2	64	32.8	1	4	90	0.00	29.970 
02:30	44.2	44.2	44.2	64	32.8	2	5	90	0.00	29.971 
02:35	44.3	44.3	44.3	64	32.9	2	6	90	0.00	29.971 
02:40	44.3	44.3	44.3	64	32.9	2	5	90	0.00	29.971 
02:45	44.3	44.3	44.3	64	32.9	2	5	90	0.00	29.965 
02:50	44.2	44.2	44.2	64	32.8	2	4	90	0.00	29.965 
02:55	43.9	43.9	43.9	65	32.9	2	4	90	0.00	29.965 
03:00	43.6	43.6	43.6	65	32.6	2	6	90	0.00	29.966 
03:05	43.6	43.6	43.6	65	32.6	2	5	90	0.00	29.966 
03:10	43.5	43.5	43.5	65	32.5	1	3	90	0.00	29.966 
03:15	43.3	43.3	43.3	66	32.7	0	2	90	0.00	29.961 
03:20	43.1	43.1	43.1	66	32.5	1	3	90	0.00	29.961 
03:25	42.9	42.9	42.9	67	32.7	1	4	90	0.00	29.961 
03:30	42.9	42.9	42.9	67	32.7	1	4	90	0.00	29.953 
03:35	42.9	42.9	42.9	67	32.7	2	5	90	0.00	29.953 
03:40	42.9	42.9	42.9	67	32.7	2	7	90	0.00	29.953 
03:45	42.9	42.9	42.9	67	32.7	3	7	90	0.00	29.940 
03:50	42.9	42.9	42.9	68	33.1	3	7	90	0.00	29.940 
03:55	42.9	42.9	42.9	68	33.1	2	5	90	0.00	29.940 
04:00	42.9	42.9	42.9	69	33.4	3	7	90	0.00	29.935 
04:05	42.9	42.9	42.9	69	33.4	3	6	90	0.00	29.935 
04:10	42.9	42.9	42.9	69	33.4	2	7	112	0.00	29.935 
04:15	42.8	42.8	42.8	70	33.7	3	7	90	0.00	29.926 
04:20	42.5	42.5	42.5	70	33.4	3	6	90	0.00	29.926 
04:25	42.3	42.3	42.3	71	33.6	3	5	90	0.00	29.926 
04:30	42.2	42.2	42.2	72	33.8	1	6	90	0.00	29.926 
04:35	42.1	42.1	42.1	73	34.1	2	6	112	0.00	29.926 
04:40	41.9	41.9	41.9	74	34.2	2	5	112	0.00	29.926 
04:45	41.9	41.9	41.9	74	34.2	2	6	90	0.00	29.923 
04:50	41.8	41.8	41.8	74	34.1	3	7	112	0.00	29.923 
04:55	41.8	41.8	41.8	75	34.5	3	7	90	0.00	29.923 
05:00	41.8	41.8	41.8	75	34.5	2	6	112	0.00	29.920 
05:05	41.5	41.5	41.5	75	34.2	2	7	112	0.00	29.920 
05:10	41.5	41.5	41.5	76	34.5	3	6	112	0.00	29.920 
05:15	41.3	41.3	41.3	76	34.3	3	7	112	0.00	29.913 
05:20	41.2	41.2	41.2	76	34.2	3	7	90	0.00	29.913 
05:25	41.2	41.2	41.2	77	34.5	2	6	112	0.00	29.913 
05:30	41.2	41.2	41.2	77	34.5	2	4	112	0.00	29.912 
05:35	41.1	41.1	41.1	77	34.4	2	6	90	0.00	29.912 
05:40	41.1	41.1	41.1	77	34.4	2	5	90	0.00	29.912 
05:45	40.9	40.9	40.9	77	34.3	2	5	112	0.00	29.908 
05:50	40.9	40.9	40.9	77	34.3	2	5	112	0.00	29.908 
05:55	40.9	40.9	40.9	78	34.6	1	4	90	0.00	29.908 
06:00	40.8	40.8	40.8	78	34.5	2	5	90	0.00	29.908 
06:05	40.8	40.8	40.8	78	34.5	2	6	90	0.00	29.908 
06:10	40.8	40.8	40.8	78	34.5	3	5	90	0.00	29.908 
06:15	40.9	38.4	40.9	77	34.3	4	9	90	0.00	29.912 
06:20	41.1	41.1	41.1	77	34.4	3	5	90	0.00	29.912 
06:25	41.1	38.6	41.1	77	34.4	4	7	90	0.00	29.912 
06:30	41.1	41.1	41.1	77	34.4	3	5	112	0.00	29.909 
06:35	40.9	40.9	40.9	77	34.3	3	6	90	0.00	29.909 
06:40	40.9	38.4	40.9	77	34.3	4	10	90	0.00	29.909 
06:45	40.8	40.8	40.8	77	34.2	3	6	112	0.00	29.902 
06:50	40.6	40.6	40.6	78	34.3	3	6	90	0.00	29.902 
06:55	40.6	40.6	40.6	78	34.3	3	7	90	0.00	29.902 
07:00	40.5	40.5	40.5	78	34.2	3	6	90	0.00	29.900 
07:05	40.5	40.5	40.5	79	34.5	3	7	90	0.00	29.900 
07:10	40.3	40.3	40.3	79	34.3	2	7	90	0.00	29.900 
07:15	40.3	40.3	40.3	79	34.3	2	5	90	0.00	29.906 
07:20	40.3	40.3	40.3	79	34.3	1	4	90	0.00	29.906 
07:25	40.5	40.5	40.5	79	34.5	3	6	90	0.00	29.906 
07:30	40.5	40.5	40.5	79	34.5	3	6	90	0.00	29.907 
07:35	40.6	40.6	40.6	79	34.6	2	5	90	0.00	29.907 
07:40	40.8	40.8	40.8	79	34.8	3	6	112	0.00	29.907 
07:45	40.8	40.8	40.8	79	34.8	3	7	90	0.00	29.909 
07:50	40.9	40.9	40.9	79	34.9	3	7	90	0.00	29.909 
07:55	40.9	40.9	40.9	79	34.9	3	6	90	0.00	29.909 
08:00	41.1	41.1	41.1	79	35.1	3	6	90	0.00	29.903 
08:05	41.2	41.2	41.2	79	35.2	2	5	90	0.00	29.903 
08:10	41.2	41.2	41.2	79	35.2	3	10	90	0.00	29.903 
08:15	41.2	41.2	41.2	79	35.2	3	8	112	0.00	29.903 
08:20	41.3	41.3	41.3	79	35.3	3	7	90	0.00	29.903 
08:25	41.3	38.8	41.3	79	35.3	4	9	90	0.00	29.903 
08:30	41.5	41.5	41.5	79	35.5	3	6	90	0.00	29.902 
08:35	41.6	41.6	41.6	79	35.6	2	5	90	0.00	29.902 
08:40	41.6	39.2	41.6	79	35.6	4	6	90	0.00	29.902 
08:45	41.8	41.8	41.8	79	35.8	3	6	90	0.00	29.900 
08:50	41.8	41.8	41.8	79	35.8	2	4	90	0.00	29.900 
08:55	41.9	41.9	41.9	79	35.9	1	3	90	0.00	29.900 
09:00	42.2	42.2	42.2	79	36.2	1	3	90	0.00	29.896 
09:05	42.3	42.3	42.3	80	36.6	1	4	90	0.00	29.896 
09:10	42.3	42.3	42.3	81	36.9	2	5	90	0.00	29.896 
09:15	42.3	42.3	42.3	81	36.9	2	4	68	0.00	29.890 
09:20	42.5	42.5	42.5	82	37.4	1	3	68	0.00	29.890 
09:25	42.5	42.5	42.5	82	37.4	1	4	90	0.00	29.890 
09:30	42.5	42.5	42.5	82	37.4	2	6	90	0.00	29.872 
09:35	42.5	42.5	42.5	83	37.7	2	6	90	0.00	29.872 
09:40	42.6	42.6	42.6	83	37.8	2	7	90	0.00	29.872 
09:45	42.8	42.8	42.8	83	38.0	3	7	90	0.00	29.856 
09:50	43.1	43.1	43.1	83	38.3	3	6	90	0.00	29.856 
09:55	43.5	43.5	43.5	83	38.7	3	6	90	0.00	29.856 
10:00	44.1	44.1	44.1	83	39.3	3	5	90	0.00	29.843 
10:05	44.5	44.5	44.5	83	39.7	3	6	112	0.00	29.843 
10:10	44.9	44.9	44.9	83	40.1	3	6	90	0.00	29.843 
10:15	45.2	45.2	45.2	82	40.0	2	5	90	0.00	29.839 
10:20	45.5	45.5	45.5	82	40.3	2	4	90	0.00	29.839 
10:25	46.1	46.1	46.1	83	41.2	1	5	90	0.00	29.839 
10:30	46.8	46.8	46.8	82	41.6	2	5	90	0.00	29.835 
10:35	47.3	47.3	47.3	82	42.1	3	9	90	0.00	29.835 
10:40	47.7	46.2	47.7	81	42.2	4	7	90	0.00	29.835 
10:45	48.5	48.5	48.5	81	42.9	3	6	90	0.00	29.814 
10:50	49.1	49.1	49.1	81	43.5	2	4	90	0.00	29.814 
10:55	49.9	49.9	49.9	81	44.3	2	6	90	0.00	29.814 
11:00	50.8	50.8	50.8	80	44.9	2	4	90	0.00	29.804 
11:05	51.4	51.4	51.4	79	45.1	1	4	90	0.00	29.804 
11:10	52.2	52.2	52.2	78	45.5	1	5	90	0.00	29.804 
11:15	52.9	52.9	52.9	78	46.2	1	4	90	0.00	29.797 
11:20	53.6	53.6	53.6	77	46.6	2	6	90	0.00	29.797 
11:25	54.4	54.4	54.4	77	47.3	2	3	90	0.00	29.797 
11:30	55.1	55.1	55.1	76	47.7	1	3	90	0.00	29.783 
11:35	56.2	56.2	56.2	75	48.4	2	6	112	0.00	29.783 
11:40	57.6	57.6	57.6	74	49.4	2	5	112	0.00	29.783 
11:45	59.9	59.9	59.9	69	49.7	3	7	90	0.00	29.766 
11:50	61.3	61.3	61.3	70	51.4	3	6	112	0.00	29.766 
11:55	61.3	61.3	61.3	71	51.8	3	10	90	0.01	29.766 
12:00	61.0	61.0	61.0	73	52.3	2	12	68	0.00	29.763 
12:05	60.7	60.7	60.7	73	52.0	2	10	90	0.00	29.763 
12:10	60.5	60.5	60.5	75	52.5	2	6	90	0.02	29.763 
12:15	60.4	60.4	60.4	76	52.8	2	5	22	0.00	29.772 
12:20	60.2	60.2	60.2	76	52.6	3	7	45	0.00	29.772 
12:25	60.4	60.4	60.4	77	53.2	2	5	225	0.00	29.772 
12:30	60.4	60.4	60.4	78	53.5	1	6	248	0.00	29.771 
12:35	60.5	60.5	60.5	77	53.2	2	9	248	0.00	29.771 
12:40	61.3	61.3	61.3	78	54.4	2	6	90	0.00	29.771 
12:45	62.6	62.6	62.6	78	55.6	2	5	248	0.00	29.762 
12:50	63.4	63.4	63.4	74	55.0	1	5	248	0.00	29.762 
12:55	64.0	64.0	64.0	71	54.4	2	7	248	0.00	29.762 
13:00	64.7	64.7	64.7	70	54.7	2	6	248	0.00	29.762 
13:05	65.8	65.8	65.8	68	54.9	3	6	248	0.00	29.762 
13:10	66.6	66.6	66.6	64	54.0	2	5	248	0.00	29.762 
13:15	66.9	66.9	66.9	62	53.4	3	9	248	0.00	29.755 
13:20	67.6	67.6	67.6	63	54.5	2	7	270	0.00	29.755 
13:25	67.8	67.8	67.8	60	53.4	5	15	248	0.00	29.755 
13:30	67.6	67.6	67.6	59	52.8	5	10	248	0.00	29.744 
13:35	67.4	67.4	67.4	60	53.0	2	5	248	0.00	29.744 
13:40	67.3	67.3	67.3	60	52.9	4	10	248	0.00	29.744 
13:45	66.9	66.9	66.9	60	52.6	3	11	248	0.00	29.749 
13:50	66.8	66.8	66.8	61	52.9	4	12	248	0.00	29.749 
13:55	66.6	66.6	66.6	60	52.3	4	13	248	0.00	29.749 
14:00	66.8	66.8	66.8	61	52.9	3	10	248	0.00	29.749 
14:05	66.9	66.9	66.9	60	52.6	3	9	248	0.00	29.749 
14:10	66.8	66.8	66.8	60	52.5	3	10	248	0.00	29.749 
14:15	66.6	66.6	66.6	60	52.3	3	11	248	0.00	29.755 
14:20	66.4	66.4	66.4	61	52.5	4	11	248	0.00	29.755 
14:25	66.4	66.4	66.4	61	52.5	3	10	248	0.00	29.755 
14:30	66.6	66.6	66.6	62	53.2	2	7	248	0.00	29.752 
14:35	66.6	66.6	66.6	61	52.7	2	6	248	0.00	29.752 
14:40	66.6	66.6	66.6	61	52.7	3	9	248	0.00	29.752 
14:45	66.9	66.9	66.9	62	53.4	1	4	225	0.00	29.751 
14:50	67.4	67.4	67.4	61	53.5	3	7	248	0.00	29.751 
14:55	67.9	67.9	67.9	60	53.5	2	7	248	0.00	29.751 
15:00	68.3	68.3	68.3	60	53.9	2	7	248	0.00	29.744 
15:05	68.4	68.4	68.4	60	54.0	1	5	248	0.00	29.744 
15:10	68.4	68.4	68.4	59	53.5	3	9	248	0.00	29.744 
15:15	68.3	68.3	68.3	59	53.4	3	7	248	0.00	29.750 
15:20	68.6	68.6	68.6	59	53.7	4	11	248	0.00	29.750 
15:25	69.6	69.6	69.6	58	54.2	3	9	270	0.00	29.750 
15:30	70.8	70.8	70.8	57	54.8	4	11	248	0.00	29.742 
15:35	71.1	71.1	71.1	55	54.1	4	16	248	0.01	29.742 
15:40	70.6	70.6	70.6	54	53.1	6	13	248	0.00	29.742 
15:45	70.4	70.4	70.4	55	53.4	4	13	225	0.00	29.740 
15:50	70.6	70.6	70.6	54	53.1	6	16	248	0.00	29.740 
15:55	70.9	70.9	70.9	54	53.4	3	7	248	0.00	29.740 
16:00	71.1	71.1	71.1	53	53.1	4	13	248	0.00	29.737 
16:05	70.9	70.9	70.9	54	53.4	4	13	248	0.00	29.737 
16:10	70.8	70.8	70.8	54	53.3	3	8	248	0.00	29.737 
16:15	70.6	70.6	70.6	54	53.1	4	12	248	0.00	29.743 
16:20	70.6	70.6	70.6	54	53.1	4	12	248	0.00	29.743 
16:25	70.6	70.6	70.6	54	53.1	4	12	248	0.00	29.743 
16:30	71.1	71.1	71.1	54	53.6	3	9	248	0.00	29.742 
16:35	71.3	71.3	71.3	53	53.3	4	8	248	0.00	29.742 
16:40	71.5	71.5	71.5	53	53.5	3	8	248	0.00	29.742 
16:45	72.0	72.0	72.0	52	53.4	2	6	248	0.00	29.752 
16:50	72.1	72.1	72.1	49	51.9	4	12	248	0.00	29.752 
16:55	72.1	72.1	72.1	50	52.4	5	12	248	0.00	29.752 
17:00	72.1	72.1	72.1	50	52.4	4	9	248	0.00	29.751 
17:05	72.1	72.1	72.1	49	51.9	3	15	248	0.00	29.751 
17:10	72.0	72.0	72.0	48	51.2	6	16	248	0.00	29.751 
17:15	72.3	72.3	72.3	47	50.9	6	11	248	0.00	29.758 
17:20	72.7	72.7	72.7	46	50.7	5	11	248	0.00	29.758 
17:25	73.0	73.0	73.0	46	51.0	5	12	248	0.00	29.758 
17:30	73.2	73.2	73.2	44	50.0	7	16	270	0.00	29.763 
17:35	73.2	73.2	73.2	45	50.6	6	13	270	0.00	29.763 
17:40	73.2	73.2	73.2	45	50.6	4	11	248	0.00	29.763 
17:45	73.3	73.3	73.3	46	51.3	4	10	270	0.00	29.764 
17:50	73.3	73.3	73.3	45	50.7	5	11	270	0.00	29.764 
17:55	73.2	73.2	73.2	45	50.6	6	11	270	0.00	29.764 
18:00	72.8	72.8	72.8	46	50.8	4	12	248	0.00	29.769 
18:05	72.5	72.5	72.5	46	50.5	4	9	270	0.00	29.769 
18:10	72.3	72.3	72.3	47	50.9	3	11	248	0.00	29.769 
18:15	72.5	72.5	72.5	47	51.1	4	10	270	0.00	29.773 
18:20	72.5	72.5	72.5	47	51.1	4	10	270	0.00	29.773 
18:25	72.7	72.7	72.7	47	51.3	5	12	270	0.00	29.773 
18:30	72.5	72.5	72.5	46	50.5	5	11	270	0.00	29.785 
18:35	72.3	72.3	72.3	47	50.9	4	11	270	0.00	29.785 
18:40	72.3	72.3	72.3	47	50.9	4	11	248	0.00	29.785 
18:45	72.1	72.1	72.1	48	51.3	3	5	248	0.00	29.795 
18:50	71.8	71.8	71.8	49	51.6	2	6	248	0.00	29.795 
18:55	71.5	71.5	71.5	49	51.3	2	6	248	0.00	29.795 
19:00	71.5	71.5	71.5	50	51.9	2	5	248	0.00	29.805 
19:05	71.6	71.6	71.6	50	52.0	2	5	270	0.00	29.805 
19:10	71.5	71.5	71.5	50	51.9	4	11	248	0.00	29.805 
19:15	71.3	71.3	71.3	50	51.7	2	5	270	0.00	29.808 
19:20	71.1	71.1	71.1	49	51.0	2	4	270	0.00	29.808 
19:25	70.9	70.9	70.9	48	50.2	3	7	270	0.00	29.808 
19:30	70.8	70.8	70.8	49	50.7	3	7	248	0.00	29.819 
19:35	70.6	70.6	70.6	49	50.5	2	4	270	0.00	29.819 
19:40	70.4	70.4	70.4	49	50.3	2	5	248	0.00	29.819 
19:45	70.3	70.3	70.3	49	50.2	2	4	270	0.00	29.824 
19:50	70.1	70.1	70.1	49	50.0	2	4	270	0.00	29.824 
19:55	69.9	69.9	69.9	49	49.9	1	3	248	0.00	29.824 
20:00	69.6	69.6	69.6	49	49.6	1	2	248	0.00	29.830 
20:05	69.4	69.4	69.4	49	49.4	0	3	248	0.00	29.830 
20:10	68.9	68.9	68.9	49	48.9	1	3	248	0.00	29.830 
20:15	68.3	68.3	68.3	50	48.9	2	6	270	0.00	29.847 
20:20	66.4	66.4	66.4	54	49.2	2	5	292	0.00	29.847 
20:25	65.2	65.2	65.2	57	49.6	1	4	315	0.00	29.847 
20:30	64.0	64.0	64.0	59	49.4	3	6	292	0.00	29.865 
20:35	63.2	63.2	63.2	60	49.1	2	6	315	0.00	29.865 
20:40	62.6	62.6	62.6	61	49.0	1	4	292	0.00	29.865 
20:45	62.1	62.1	62.1	62	48.9	0	3	270	0.00	29.876 
20:50	61.6	61.6	61.6	63	48.9	0	2	315	0.00	29.876 
20:55	61.2	61.2	61.2	63	48.5	1	3	315	0.00	29.876 
21:00	60.7	60.7	60.7	63	48.0	2	4	338	0.00	29.893 
21:05	60.4	60.4	60.4	63	47.7	1	5	0	0.00	29.893 
21:10	59.9	59.9	59.9	64	47.7	1	3	270	0.00	29.893 
21:15	59.6	59.6	59.6	64	47.4	1	4	292	0.00	29.896 
21:20	59.3	59.3	59.3	65	47.5	0	2	292	0.00	29.896 
21:25	59.0	59.0	59.0	65	47.2	1	4	292	0.00	29.896 
21:30	58.7	58.7	58.7	65	47.0	1	5	270	0.00	29.910 
21:35	58.6	58.6	58.6	64	46.5	0	3	270	0.00	29.910 
21:40	58.4	58.4	58.4	64	46.3	0	2	270	0.00	29.910 
21:45	58.3	58.3	58.3	62	45.3	0	2	292	0.00	29.925 
21:50	58.3	58.3	58.3	62	45.3	0	2	292	0.00	29.925 
21:55	58.1	58.1	58.1	62	45.1	0	2	292	0.00	29.925 
22:00	58.0	58.0	58.0	62	45.1	1	3	292	0.00	29.937 
22:05	57.8	57.8	57.8	62	44.9	1	3	292	0.00	29.937 
22:10	57.6	57.6	57.6	62	44.7	0	2	292	0.00	29.937 
22:15	57.5	57.5	57.5	62	44.6	0	1	292	0.00	29.940 
22:20	57.5	57.5	57.5	62	44.6	0	1	292	0.00	29.940 
22:25	57.2	57.2	57.2	62	44.3	0	1	292	0.00	29.940 
22:30	57.0	57.0	57.0	63	44.5	0	0	---	0.00	29.951 
22:35	56.6	56.6	56.6	63	44.2	0	1	292	0.00	29.951 
22:40	56.3	56.3	56.3	64	44.3	0	0	---	0.00	29.951 
22:45	56.0	56.0	56.0	65	44.4	0	0	---	0.00	29.956 
22:50	55.9	55.9	55.9	65	44.3	0	0	---	0.00	29.956 
22:55	55.9	55.9	55.9	65	44.3	0	0	---	0.00	29.956 
23:00	55.9	55.9	55.9	65	44.3	0	0	---	0.00	29.957 
23:05	55.7	55.7	55.7	65	44.1	0	0	---	0.00	29.957 
23:10	55.6	55.6	55.6	65	44.0	0	0	---	0.00	29.957 
23:15	55.4	55.4	55.4	66	44.2	0	0	---	0.00	29.950 
23:20	55.1	55.1	55.1	66	43.9	0	0	---	0.00	29.950 
23:25	54.7	54.7	54.7	66	43.6	0	0	---	0.00	29.950 
23:30	54.4	54.4	54.4	67	43.7	0	0	---	0.00	29.959 
23:35	54.2	54.2	54.2	69	44.3	0	0	---	0.00	29.959 
23:40	54.1	54.1	54.1	69	44.2	0	0	---	0.00	29.959 
23:45	53.9	53.9	53.9	69	44.0	0	0	---	0.00	29.963 
23:50	53.8	53.8	53.8	70	44.2	0	0	---	0.00	29.963 
23:55	53.6	53.6	53.6	70	44.1	0	0	---	0.00	29.963 

CoCoRaHS
IN-AL-39
A2 Web Hosting
Creative Commons License
GoDaddy
search engine by freefind advanced

loaded 2018-11-13 17:51:24 • last modified 2010-11-18 10:43:29
Privacy PolicyDisclaimer
• wx.awcolley.com is powered by PmWiki v.2002016 •
• all content (unless otherwise noted) © 2018 A W Colley